• Join FlightAware (Why Join?)
  • Login
  • US Flag 
04:24PM EDT


 

Airport Tracker/Info


-or-


 

Live Flight TrackerFlight Track Log ✈ ASQ5605 ✈ 29-Jul-2013 ✈ KCVG - KDCA

Flight Track Log - Related Links

Times and Time Zones

All times are in EDT time to prevent confusion due to time zone crossing. See the ASQ5605 flight status page for this flight to view local times or setup timezone preferences in your user account.

Time Position Orientation Groundspeed Altitude Reporting Facility
EDT Latitude Longitude Course Direction KTS MPH feet Rate Location/Type
09:01PM 39.0333 -84.6667 123° Southeast 167 192 1,600  Level Cincinnati TRACON
09:01PM 39.0167 -84.6333 123° Southeast 236 272 2,500 2,760 Climbing Cincinnati TRACON
09:02PM 39.0000 -84.5333 102° East 284 327 6,300 3,420 Climbing Cincinnati TRACON
09:03PM 38.9667 -84.4333 113° Southeast 284 327 9,800 2,220 Climbing Cincinnati TRACON
09:05PM 38.9389 -84.2975 105° East 349 402 11,400 1,500 Climbing Indianapolis Center
09:06PM 38.9061 -84.1578 107° East 402 463 13,300 2,160 Climbing Indianapolis Center
09:07PM 38.8711 -84.0200 108° East 405 466 15,900 2,340 Climbing Indianapolis Center
09:08PM 38.8417 -83.8778 105° East 406 467 18,200 2,100 Climbing Indianapolis Center
09:09PM 38.8106 -83.7372 106° East 407 468 20,300 2,040 Climbing Indianapolis Center
09:10PM 38.7728 -83.5622 105° East 430 495 22,400 1,800 Climbing Indianapolis Center
09:11PM 38.7650 -83.4033 94° East 449 517 24,000 1,260 Climbing Indianapolis Center
09:12PM 38.7639 -83.2417 90° East 451 519 25,000 1,200 Climbing Indianapolis Center
09:13PM 38.7633 -83.0931 90° East 469 540 26,500 1,440 Climbing Indianapolis Center
09:14PM 38.7600 -82.8900 91° East 475 547 28,000 1,140 Climbing Indianapolis Center
09:15PM 38.7025 -82.7261 114° Southeast 502 578 28,900 720 Climbing Indianapolis Center
09:16PM 38.6386 -82.5517 115° Southeast 513 590 29,500 1,260 Climbing Indianapolis Center
09:17PM 38.5831 -82.4014 115° Southeast 501 577 31,600 1,800 Climbing Indianapolis Center
09:18PM 38.5253 -82.2442 115° Southeast 493 567 33,200 1,260 Climbing Indianapolis Center
09:19PM 38.4653 -82.0844 116° Southeast 499 574 34,200 840 Climbing Indianapolis Center
09:20PM 38.4053 -81.9236 115° Southeast 506 582 35,000 360 Climbing Indianapolis Center
09:21PM 38.3544 -81.7503 110° East 528 608 35,000  Level Indianapolis Center
09:22PM 38.3422 -81.5283 94° East 531 611 35,000  Level Indianapolis Center
09:23PM 38.3356 -81.3447 93° East 527 606 35,000  Level Indianapolis Center
09:24PM 38.3292 -81.1611 92° East 523 602 35,000  Level Indianapolis Center
09:25PM 38.3219 -80.9769 93° East 522 601 35,000  Level Indianapolis Center
09:26PM 38.3153 -80.7925 93° East 523 602 35,000  Level Indianapolis Center
09:27PM 38.3094 -80.6072 92° East 526 605 35,000  Level Indianapolis Center
09:28PM 38.3039 -80.4631 93° East 521 600 35,000  Level Washington Center
09:29PM 38.2967 -80.2772 93° East 521 600 35,000  Level Washington Center
09:30PM 38.2889 -80.0942 93° East 521 600 35,000  Level Washington Center
09:31PM 38.2797 -79.8900 93° East 521 600 35,000  Level Washington Center
09:32PM 38.2903 -79.7108 86° East 515 593 35,000 -540 Level Washington Center
09:33PM 38.3394 -79.5467 69° East 502 578 34,000 -1,560 Descending Washington Center
09:34PM 38.3969 -79.3881 65° Northeast 484 557 31,900 -1,920 Descending Washington Center
09:35PM 38.4372 -79.2311 72° East 478 550 30,200 -1,860 Descending Washington Center
09:36PM 38.4644 -79.0867 76° East 466 536 28,300 -1,980 Descending Washington Center
09:37PM 38.4897 -78.9339 78° East 456 525 26,300 -2,040 Descending Washington Center
09:38PM 38.5125 -78.7783 79° East 445 512 24,300 -1,860 Descending Washington Center
09:39PM 38.5353 -78.6308 79° East 435 501 22,600 -1,800 Descending Washington Center
09:40PM 38.5597 -78.4858 78° East 424 488 20,800 -1,920 Descending Washington Center
09:41PM 38.5794 -78.3511 79° East 410 472 18,900 -1,680 Descending Washington Center
09:42PM 38.6094 -78.2192 74° East 388 447 17,500 -1,500 Descending Washington Center
09:43PM 38.6478 -78.0931 69° East 377 434 16,000 -1,620 Descending Washington Center
09:44PM 38.6856 -77.9772 67° East 362 417 14,400 -1,500 Descending Washington Center
09:45PM 38.7189 -77.8692 68° East 341 392 13,100 -1,260 Descending Washington Center
09:46PM 38.7664 -77.7803 56° Northeast 315 362 11,900 -1,080 Descending Washington Center
09:47PM 38.8200 -77.6911 52° Northeast 310 357 11,000 -1,260 Descending Washington Center
09:48PM 38.8500 -77.6000 67° East 315 362 9,800 -1,560 Descending Potomac TRACON
09:49PM 38.8833 -77.5000 67° East 304 350 8,300 -1,020 Descending Potomac TRACON
09:50PM 38.8833 -77.4000 90° East 301 346 7,700 -1,140 Descending Potomac TRACON
09:51PM 38.8500 -77.3167 117° Southeast 286 329 6,100 -1,560 Descending Potomac TRACON
09:52PM 38.8000 -77.2333 128° Southeast 282 325 4,800 -1,500 Descending Potomac TRACON
09:53PM 38.7500 -77.1667 134° Southeast 269 310 3,200 -1,200 Descending Potomac TRACON
09:54PM 38.7167 -77.1000 123° Southeast 236 272 2,500 -600 Descending Potomac TRACON
09:55PM 38.7333 -77.0500 67° East 181 208 2,000 -600 Descending Potomac TRACON
09:56PM 38.7833 -77.0333 15° North 162 186 1,400 -720 Descending Potomac TRACON
09:57PM 38.8167 -77.0333 360° North 130 150 600 -840 Descending Potomac TRACON
09:59PM 38.8500 -77.0333 North  Level FlightAware Approximate
10:06PM 38.8519 -77.0377 North  Level Estimated
10:07PM 38.8500 -77.0333 North  Level FlightAware Approximate
10:08PM 38.8519 -77.0377 North  Level Estimated
10:09PM 38.8500 -77.0333 North  Level FlightAware Approximate